sensor_id;sensor_type;location;lat;lon;timestamp;pressure;altitude;pressure_sealevel;temperature;humidity
72558;BME280;60583;50.094;8.748;2022-11-24T00:01:47;99669.88;;;7.03;95.78
72558;BME280;60583;50.094;8.748;2022-11-24T00:04:13;99666.81;;;6.99;96.43
72558;BME280;60583;50.094;8.748;2022-11-24T00:06:39;99676.75;;;6.97;96.13
72558;BME280;60583;50.094;8.748;2022-11-24T00:09:04;99676.00;;;7.03;96.66
72558;BME280;60583;50.094;8.748;2022-11-24T00:11:32;99671.78;;;7.16;96.34
72558;BME280;60583;50.094;8.748;2022-11-24T00:13:58;99667.06;;;7.11;96.30
72558;BME280;60583;50.094;8.748;2022-11-24T00:16:29;99664.63;;;7.10;95.76
72558;BME280;60583;50.094;8.748;2022-11-24T00:18:57;99669.34;;;7.14;96.27
72558;BME280;60583;50.094;8.748;2022-11-24T00:21:24;99673.63;;;7.15;96.36
72558;BME280;60583;50.094;8.748;2022-11-24T00:23:50;99658.75;;;7.14;96.04
72558;BME280;60583;50.094;8.748;2022-11-24T00:26:20;99668.16;;;7.23;96.05
72558;BME280;60583;50.094;8.748;2022-11-24T00:28:47;99675.28;;;7.23;95.79
72558;BME280;60583;50.094;8.748;2022-11-24T00:33:50;99670.03;;;7.29;95.85
72558;BME280;60583;50.094;8.748;2022-11-24T00:36:18;99659.28;;;7.37;95.95
72558;BME280;60583;50.094;8.748;2022-11-24T00:38:44;99671.66;;;7.30;96.76
72558;BME280;60583;50.094;8.748;2022-11-24T00:41:09;99687.81;;;7.35;96.34
72558;BME280;60583;50.094;8.748;2022-11-24T00:43:35;99681.06;;;7.33;96.47
72558;BME280;60583;50.094;8.748;2022-11-24T00:46:01;99696.81;;;7.41;95.93
72558;BME280;60583;50.094;8.748;2022-11-24T00:48:26;99701.50;;;7.39;96.14
72558;BME280;60583;50.094;8.748;2022-11-24T00:51:17;99708.66;;;7.38;96.58
72558;BME280;60583;50.094;8.748;2022-11-24T00:53:43;99708.25;;;7.41;96.23
72558;BME280;60583;50.094;8.748;2022-11-24T00:56:09;99719.06;;;7.40;95.61
72558;BME280;60583;50.094;8.748;2022-11-24T00:58:35;99710.91;;;7.41;96.51
72558;BME280;60583;50.094;8.748;2022-11-24T01:01:07;99711.69;;;7.35;95.55
72558;BME280;60583;50.094;8.748;2022-11-24T01:03:33;99717.81;;;7.36;96.58
72558;BME280;60583;50.094;8.748;2022-11-24T01:06:19;99712.16;;;7.45;96.24
72558;BME280;60583;50.094;8.748;2022-11-24T01:08:46;99725.16;;;7.34;96.54
72558;BME280;60583;50.094;8.748;2022-11-24T01:11:17;99715.94;;;7.30;96.85
72558;BME280;60583;50.094;8.748;2022-11-24T01:13:45;99726.34;;;7.31;96.87
72558;BME280;60583;50.094;8.748;2022-11-24T01:16:15;99736.97;;;7.31;96.38
72558;BME280;60583;50.094;8.748;2022-11-24T01:18:40;99737.53;;;7.27;95.92
72558;BME280;60583;50.094;8.748;2022-11-24T01:21:06;99737.56;;;7.33;95.71
72558;BME280;60583;50.094;8.748;2022-11-24T01:23:31;99742.50;;;7.36;95.76
72558;BME280;60583;50.094;8.748;2022-11-24T01:25:57;99740.47;;;7.38;96.08
72558;BME280;60583;50.094;8.748;2022-11-24T01:28:22;99749.25;;;7.39;95.65
72558;BME280;60583;50.094;8.748;2022-11-24T01:30:58;99739.63;;;7.31;95.98
72558;BME280;60583;50.094;8.748;2022-11-24T01:33:24;99751.16;;;7.17;97.17
72558;BME280;60583;50.094;8.748;2022-11-24T01:35:50;99742.88;;;7.05;97.01
72558;BME280;60583;50.094;8.748;2022-11-24T01:38:15;99757.66;;;7.15;97.42
72558;BME280;60583;50.094;8.748;2022-11-24T01:40:41;99759.03;;;7.11;97.23
72558;BME280;60583;50.094;8.748;2022-11-24T01:43:17;99765.72;;;7.06;97.85
72558;BME280;60583;50.094;8.748;2022-11-24T01:45:43;99764.53;;;7.09;97.24
72558;BME280;60583;50.094;8.748;2022-11-24T01:48:17;99763.75;;;7.15;97.54
72558;BME280;60583;50.094;8.748;2022-11-24T01:50:51;99767.81;;;7.11;97.85
72558;BME280;60583;50.094;8.748;2022-11-24T01:53:19;99768.06;;;7.16;96.86
72558;BME280;60583;50.094;8.748;2022-11-24T01:55:45;99755.38;;;7.12;97.23
72558;BME280;60583;50.094;8.748;2022-11-24T01:58:18;99772.59;;;7.22;97.80
72558;BME280;60583;50.094;8.748;2022-11-24T02:00:45;99765.44;;;7.23;97.11
72558;BME280;60583;50.094;8.748;2022-11-24T02:03:13;99774.47;;;7.28;97.15
72558;BME280;60583;50.094;8.748;2022-11-24T02:08:21;99775.50;;;7.27;97.16
72558;BME280;60583;50.094;8.748;2022-11-24T02:10:50;99778.78;;;7.29;96.98
72558;BME280;60583;50.094;8.748;2022-11-24T02:13:16;99775.31;;;7.35;97.62
72558;BME280;60583;50.094;8.748;2022-11-24T02:15:42;99780.25;;;7.38;96.97
72558;BME280;60583;50.094;8.748;2022-11-24T02:18:07;99779.00;;;7.34;97.51
72558;BME280;60583;50.094;8.748;2022-11-24T02:20:33;99788.59;;;7.35;97.66
72558;BME280;60583;50.094;8.748;2022-11-24T02:23:13;99785.94;;;7.35;97.72
72558;BME280;60583;50.094;8.748;2022-11-24T02:28:26;99784.22;;;7.49;96.70
72558;BME280;60583;50.094;8.748;2022-11-24T02:30:54;99783.25;;;7.56;96.57
72558;BME280;60583;50.094;8.748;2022-11-24T02:33:21;99791.44;;;7.61;96.71
72558;BME280;60583;50.094;8.748;2022-11-24T02:35:46;99788.34;;;7.58;95.85
72558;BME280;60583;50.094;8.748;2022-11-24T02:38:12;99783.09;;;7.64;95.63
72558;BME280;60583;50.094;8.748;2022-11-24T02:40:40;99785.31;;;7.61;96.14
72558;BME280;60583;50.094;8.748;2022-11-24T02:43:10;99781.59;;;7.55;96.52
72558;BME280;60583;50.094;8.748;2022-11-24T02:45:37;99784.91;;;7.57;96.36
72558;BME280;60583;50.094;8.748;2022-11-24T02:48:03;99781.22;;;7.58;96.43
72558;BME280;60583;50.094;8.748;2022-11-24T02:50:28;99780.06;;;7.67;96.51
72558;BME280;60583;50.094;8.748;2022-11-24T02:52:53;99777.66;;;7.72;96.02
72558;BME280;60583;50.094;8.748;2022-11-24T02:55:19;99782.72;;;7.67;95.58
72558;BME280;60583;50.094;8.748;2022-11-24T02:57:45;99779.63;;;7.64;95.75
72558;BME280;60583;50.094;8.748;2022-11-24T03:00:10;99783.50;;;7.68;95.95
72558;BME280;60583;50.094;8.748;2022-11-24T03:02:36;99776.38;;;7.68;95.61
72558;BME280;60583;50.094;8.748;2022-11-24T03:05:01;99784.19;;;7.77;95.23
72558;BME280;60583;50.094;8.748;2022-11-24T03:07:27;99793.00;;;7.84;95.13
72558;BME280;60583;50.094;8.748;2022-11-24T03:09:52;99794.41;;;7.80;94.52
72558;BME280;60583;50.094;8.748;2022-11-24T03:12:17;99794.31;;;7.66;96.02
72558;BME280;60583;50.094;8.748;2022-11-24T03:14:43;99785.38;;;7.67;95.79
72558;BME280;60583;50.094;8.748;2022-11-24T03:17:08;99798.22;;;7.70;95.76
72558;BME280;60583;50.094;8.748;2022-11-24T03:19:34;99789.03;;;7.66;95.03
72558;BME280;60583;50.094;8.748;2022-11-24T03:21:59;99799.88;;;7.71;94.93
72558;BME280;60583;50.094;8.748;2022-11-24T03:24:25;99794.72;;;7.63;95.90
72558;BME280;60583;50.094;8.748;2022-11-24T03:26:50;99804.97;;;7.73;95.31
72558;BME280;60583;50.094;8.748;2022-11-24T03:29:16;99807.84;;;7.71;95.66
72558;BME280;60583;50.094;8.748;2022-11-24T03:31:41;99809.72;;;7.78;94.40
72558;BME280;60583;50.094;8.748;2022-11-24T03:34:07;99808.28;;;7.75;94.67
72558;BME280;60583;50.094;8.748;2022-11-24T03:36:32;99805.56;;;7.68;95.54
72558;BME280;60583;50.094;8.748;2022-11-24T03:38:57;99803.94;;;7.67;95.35
72558;BME280;60583;50.094;8.748;2022-11-24T03:41:23;99805.31;;;7.63;95.30
72558;BME280;60583;50.094;8.748;2022-11-24T03:43:48;99800.63;;;7.65;95.68
72558;BME280;60583;50.094;8.748;2022-11-24T03:46:13;99797.97;;;7.65;94.51
72558;BME280;60583;50.094;8.748;2022-11-24T03:48:39;99790.97;;;7.51;95.60
72558;BME280;60583;50.094;8.748;2022-11-24T03:51:05;99798.47;;;7.48;95.64
72558;BME280;60583;50.094;8.748;2022-11-24T03:53:32;99794.84;;;7.55;94.98
72558;BME280;60583;50.094;8.748;2022-11-24T03:55:58;99785.06;;;7.56;95.13
72558;BME280;60583;50.094;8.748;2022-11-24T03:58:24;99778.53;;;7.52;95.42
72558;BME280;60583;50.094;8.748;2022-11-24T04:00:51;99791.41;;;7.55;94.26
72558;BME280;60583;50.094;8.748;2022-11-24T04:03:17;99796.25;;;7.51;95.16
72558;BME280;60583;50.094;8.748;2022-11-24T04:05:44;99797.03;;;7.45;94.93
72558;BME280;60583;50.094;8.748;2022-11-24T04:08:09;99804.22;;;7.51;95.27
72558;BME280;60583;50.094;8.748;2022-11-24T04:10:36;99808.84;;;7.43;94.94
72558;BME280;60583;50.094;8.748;2022-11-24T04:13:11;99810.28;;;7.45;94.73
72558;BME280;60583;50.094;8.748;2022-11-24T04:15:38;99807.97;;;7.36;95.16
72558;BME280;60583;50.094;8.748;2022-11-24T04:18:04;99809.63;;;7.37;95.30
72558;BME280;60583;50.094;8.748;2022-11-24T04:20:30;99811.94;;;7.46;94.27
72558;BME280;60583;50.094;8.748;2022-11-24T04:22:55;99818.25;;;7.45;95.14
72558;BME280;60583;50.094;8.748;2022-11-24T04:25:21;99815.84;;;7.50;94.00
72558;BME280;60583;50.094;8.748;2022-11-24T04:27:50;99828.53;;;7.55;94.93
72558;BME280;60583;50.094;8.748;2022-11-24T04:30:18;99825.25;;;7.53;95.33
72558;BME280;60583;50.094;8.748;2022-11-24T04:32:43;99830.16;;;7.56;95.10
72558;BME280;60583;50.094;8.748;2022-11-24T04:35:09;99827.50;;;7.56;94.36
72558;BME280;60583;50.094;8.748;2022-11-24T04:37:34;99833.84;;;7.55;94.75
72558;BME280;60583;50.094;8.748;2022-11-24T04:40:00;99842.06;;;7.60;94.88
72558;BME280;60583;50.094;8.748;2022-11-24T04:42:26;99842.28;;;7.65;94.42
72558;BME280;60583;50.094;8.748;2022-11-24T04:44:51;99854.34;;;7.67;94.38
72558;BME280;60583;50.094;8.748;2022-11-24T04:47:19;99851.34;;;7.77;93.94
72558;BME280;60583;50.094;8.748;2022-11-24T04:49:46;99843.91;;;7.66;95.17
72558;BME280;60583;50.094;8.748;2022-11-24T04:52:12;99844.72;;;7.60;96.02
72558;BME280;60583;50.094;8.748;2022-11-24T04:54:37;99846.06;;;7.77;95.23
72558;BME280;60583;50.094;8.748;2022-11-24T04:57:03;99855.59;;;7.71;94.68
72558;BME280;60583;50.094;8.748;2022-11-24T04:59:28;99870.53;;;7.72;94.68
72558;BME280;60583;50.094;8.748;2022-11-24T05:01:54;99856.84;;;7.76;95.00
72558;BME280;60583;50.094;8.748;2022-11-24T05:04:19;99860.16;;;7.78;95.43
72558;BME280;60583;50.094;8.748;2022-11-24T05:06:46;99865.09;;;7.87;94.49
72558;BME280;60583;50.094;8.748;2022-11-24T05:09:15;99864.72;;;7.90;94.86
72558;BME280;60583;50.094;8.748;2022-11-24T05:11:41;99877.88;;;8.05;94.40
72558;BME280;60583;50.094;8.748;2022-11-24T05:14:07;99877.50;;;8.08;94.06
72558;BME280;60583;50.094;8.748;2022-11-24T05:16:32;99875.47;;;8.10;94.04
72558;BME280;60583;50.094;8.748;2022-11-24T05:18:58;99880.63;;;8.18;93.09
72558;BME280;60583;50.094;8.748;2022-11-24T05:21:23;99880.38;;;8.13;94.10
72558;BME280;60583;50.094;8.748;2022-11-24T05:23:49;99878.34;;;8.15;93.50
72558;BME280;60583;50.094;8.748;2022-11-24T05:26:14;99886.50;;;8.13;92.89
72558;BME280;60583;50.094;8.748;2022-11-24T05:28:39;99886.94;;;8.17;93.20
72558;BME280;60583;50.094;8.748;2022-11-24T05:31:05;99898.38;;;8.17;92.94
72558;BME280;60583;50.094;8.748;2022-11-24T05:33:30;99892.63;;;8.14;94.18
72558;BME280;60583;50.094;8.748;2022-11-24T05:36:02;99895.66;;;8.11;93.59
72558;BME280;60583;50.094;8.748;2022-11-24T05:38:28;99888.59;;;8.18;93.17
72558;BME280;60583;50.094;8.748;2022-11-24T05:40:59;99900.25;;;8.23;92.65
72558;BME280;60583;50.094;8.748;2022-11-24T05:43:24;99900.44;;;8.22;92.92
72558;BME280;60583;50.094;8.748;2022-11-24T05:45:50;99905.16;;;8.20;93.72
72558;BME280;60583;50.094;8.748;2022-11-24T05:48:15;99912.72;;;8.23;92.78
72558;BME280;60583;50.094;8.748;2022-11-24T05:50:40;99917.28;;;8.29;93.24
72558;BME280;60583;50.094;8.748;2022-11-24T05:53:09;99908.91;;;8.32;92.47
72558;BME280;60583;50.094;8.748;2022-11-24T05:55:35;99911.22;;;8.42;92.31
72558;BME280;60583;50.094;8.748;2022-11-24T05:58:03;99911.66;;;8.45;92.19
72558;BME280;60583;50.094;8.748;2022-11-24T06:00:30;99909.19;;;8.44;92.61
72558;BME280;60583;50.094;8.748;2022-11-24T06:02:56;99910.81;;;8.45;92.08
72558;BME280;60583;50.094;8.748;2022-11-24T06:05:22;99912.81;;;8.36;92.79
72558;BME280;60583;50.094;8.748;2022-11-24T06:07:48;99922.47;;;8.44;92.13
72558;BME280;60583;50.094;8.748;2022-11-24T06:10:15;99913.69;;;8.43;92.22
72558;BME280;60583;50.094;8.748;2022-11-24T06:12:41;99917.44;;;8.55;91.73
72558;BME280;60583;50.094;8.748;2022-11-24T06:15:07;99919.25;;;8.48;92.06
72558;BME280;60583;50.094;8.748;2022-11-24T06:17:32;99911.66;;;8.45;92.73
72558;BME280;60583;50.094;8.748;2022-11-24T06:19:58;99919.06;;;8.56;91.90
72558;BME280;60583;50.094;8.748;2022-11-24T06:22:23;99927.00;;;8.50;92.71
72558;BME280;60583;50.094;8.748;2022-11-24T06:24:48;99932.09;;;8.45;93.03
72558;BME280;60583;50.094;8.748;2022-11-24T06:27:15;99925.72;;;8.39;92.09
72558;BME280;60583;50.094;8.748;2022-11-24T06:29:40;99930.47;;;8.50;92.10
72558;BME280;60583;50.094;8.748;2022-11-24T06:32:06;99927.59;;;8.45;92.16
72558;BME280;60583;50.094;8.748;2022-11-24T06:34:31;99938.31;;;8.58;91.74
72558;BME280;60583;50.094;8.748;2022-11-24T06:36:56;99929.28;;;8.53;92.24
72558;BME280;60583;50.094;8.748;2022-11-24T06:39:22;99938.31;;;8.58;91.96
72558;BME280;60583;50.094;8.748;2022-11-24T06:41:51;99928.84;;;8.49;92.14
72558;BME280;60583;50.094;8.748;2022-11-24T06:44:17;99942.59;;;8.59;91.74
72558;BME280;60583;50.094;8.748;2022-11-24T06:46:43;99940.31;;;8.56;91.78
72558;BME280;60583;50.094;8.748;2022-11-24T06:49:08;99936.25;;;8.60;91.49
72558;BME280;60583;50.094;8.748;2022-11-24T06:51:34;99941.59;;;8.67;91.68
72558;BME280;60583;50.094;8.748;2022-11-24T06:53:59;99944.41;;;8.59;92.09
72558;BME280;60583;50.094;8.748;2022-11-24T06:56:25;99940.59;;;8.68;91.35
72558;BME280;60583;50.094;8.748;2022-11-24T06:58:52;99949.38;;;8.68;91.39
72558;BME280;60583;50.094;8.748;2022-11-24T07:01:22;99947.13;;;8.65;90.82
72558;BME280;60583;50.094;8.748;2022-11-24T07:03:48;99943.84;;;8.63;90.82
72558;BME280;60583;50.094;8.748;2022-11-24T07:06:15;99954.72;;;8.68;90.76
72558;BME280;60583;50.094;8.748;2022-11-24T07:08:40;99954.72;;;8.68;91.13
72558;BME280;60583;50.094;8.748;2022-11-24T07:11:08;99960.03;;;8.68;91.74
72558;BME280;60583;50.094;8.748;2022-11-24T07:13:35;99956.91;;;8.58;91.91
72558;BME280;60583;50.094;8.748;2022-11-24T07:18:38;99963.69;;;8.67;92.33
72558;BME280;60583;50.094;8.748;2022-11-24T07:21:04;99961.03;;;8.67;92.58
72558;BME280;60583;50.094;8.748;2022-11-24T07:23:29;99966.56;;;8.66;92.44
72558;BME280;60583;50.094;8.748;2022-11-24T07:25:55;99957.53;;;8.60;92.69
72558;BME280;60583;50.094;8.748;2022-11-24T07:28:20;99980.25;;;8.69;92.95
72558;BME280;60583;50.094;8.748;2022-11-24T07:30:46;99985.78;;;8.68;92.61
72558;BME280;60583;50.094;8.748;2022-11-24T07:33:11;99984.94;;;8.67;92.98
72558;BME280;60583;50.094;8.748;2022-11-24T07:35:37;99985.94;;;8.60;93.06
72558;BME280;60583;50.094;8.748;2022-11-24T07:38:02;99993.50;;;8.63;93.41
72558;BME280;60583;50.094;8.748;2022-11-24T07:40:28;99986.13;;;8.58;93.78
72558;BME280;60583;50.094;8.748;2022-11-24T07:42:53;100004.06;;;8.50;93.66
72558;BME280;60583;50.094;8.748;2022-11-24T07:45:18;99999.56;;;8.50;94.18
72558;BME280;60583;50.094;8.748;2022-11-24T07:47:44;100010.19;;;8.50;94.04
72558;BME280;60583;50.094;8.748;2022-11-24T07:50:10;100011.06;;;8.57;93.82
72558;BME280;60583;50.094;8.748;2022-11-24T07:52:36;100004.16;;;8.63;92.61
72558;BME280;60583;50.094;8.748;2022-11-24T07:55:02;100013.75;;;8.64;93.34
72558;BME280;60583;50.094;8.748;2022-11-24T07:57:27;100009.25;;;8.64;92.70
72558;BME280;60583;50.094;8.748;2022-11-24T07:59:54;100013.13;;;8.62;93.24
72558;BME280;60583;50.094;8.748;2022-11-24T08:02:19;100008.63;;;8.62;93.79
72558;BME280;60583;50.094;8.748;2022-11-24T08:04:45;100011.38;;;8.75;92.18
72558;BME280;60583;50.094;8.748;2022-11-24T08:07:10;100011.97;;;8.71;92.99
72558;BME280;60583;50.094;8.748;2022-11-24T08:09:36;100020.56;;;8.73;93.09
72558;BME280;60583;50.094;8.748;2022-11-24T08:12:01;100025.06;;;8.72;93.13
72558;BME280;60583;50.094;8.748;2022-11-24T08:14:27;100022.16;;;8.67;92.14
72558;BME280;60583;50.094;8.748;2022-11-24T08:16:52;100024.47;;;8.77;92.51
72558;BME280;60583;50.094;8.748;2022-11-24T08:19:18;100032.41;;;8.70;92.31
72558;BME280;60583;50.094;8.748;2022-11-24T08:21:43;100034.22;;;8.63;93.44
72558;BME280;60583;50.094;8.748;2022-11-24T08:24:08;100035.44;;;8.67;93.32
72558;BME280;60583;50.094;8.748;2022-11-24T08:26:34;100043.41;;;8.67;93.03
72558;BME280;60583;50.094;8.748;2022-11-24T08:28:59;100041.38;;;8.69;93.07
72558;BME280;60583;50.094;8.748;2022-11-24T08:31:26;100044.41;;;8.66;92.34
72558;BME280;60583;50.094;8.748;2022-11-24T08:33:57;100035.88;;;8.71;92.19
72558;BME280;60583;50.094;8.748;2022-11-24T08:36:22;100045.09;;;8.75;92.27
72558;BME280;60583;50.094;8.748;2022-11-24T08:38:53;100044.72;;;8.78;92.28
72558;BME280;60583;50.094;8.748;2022-11-24T08:41:19;100048.59;;;8.75;92.06
72558;BME280;60583;50.094;8.748;2022-11-24T08:43:44;100050.88;;;8.78;91.78
72558;BME280;60583;50.094;8.748;2022-11-24T08:46:13;100051.47;;;8.80;91.70
72558;BME280;60583;50.094;8.748;2022-11-24T08:48:41;100057.41;;;8.82;92.12
72558;BME280;60583;50.094;8.748;2022-11-24T08:51:11;100050.53;;;8.94;90.93
72558;BME280;60583;50.094;8.748;2022-11-24T08:53:38;100060.81;;;9.04;90.61
72558;BME280;60583;50.094;8.748;2022-11-24T08:56:05;100069.47;;;9.13;90.23
72558;BME280;60583;50.094;8.748;2022-11-24T08:58:31;100064.81;;;9.21;89.52
72558;BME280;60583;50.094;8.748;2022-11-24T09:01:07;100068.72;;;9.32;89.23
72558;BME280;60583;50.094;8.748;2022-11-24T09:03:33;100079.88;;;9.55;88.05
72558;BME280;60583;50.094;8.748;2022-11-24T09:05:59;100076.81;;;9.64;87.40
72558;BME280;60583;50.094;8.748;2022-11-24T09:08:24;100065.03;;;9.93;86.50
72558;BME280;60583;50.094;8.748;2022-11-24T09:10:50;100058.34;;;10.23;84.91
72558;BME280;60583;50.094;8.748;2022-11-24T09:13:15;100064.69;;;10.16;84.22
72558;BME280;60583;50.094;8.748;2022-11-24T09:15:41;100068.56;;;10.13;84.94
72558;BME280;60583;50.094;8.748;2022-11-24T09:18:06;100066.94;;;10.25;84.72
72558;BME280;60583;50.094;8.748;2022-11-24T09:20:33;100064.69;;;10.22;84.20
72558;BME280;60583;50.094;8.748;2022-11-24T09:22:59;100076.75;;;10.84;82.68
72558;BME280;60583;50.094;8.748;2022-11-24T09:25:24;100074.91;;;11.48;79.56
72558;BME280;60583;50.094;8.748;2022-11-24T09:27:50;100077.56;;;10.91;80.52
72558;BME280;60583;50.094;8.748;2022-11-24T09:30:16;100086.16;;;11.06;80.57
72558;BME280;60583;50.094;8.748;2022-11-24T09:32:42;100081.25;;;10.97;81.05
72558;BME280;60583;50.094;8.748;2022-11-24T09:35:07;100088.88;;;10.67;81.85
72558;BME280;60583;50.094;8.748;2022-11-24T09:37:33;100092.56;;;10.53;82.58
72558;BME280;60583;50.094;8.748;2022-11-24T09:39:59;100095.66;;;10.56;82.80
72558;BME280;60583;50.094;8.748;2022-11-24T09:45:25;100101.75;;;11.03;80.14
72558;BME280;60583;50.094;8.748;2022-11-24T09:47:59;100108.34;;;10.87;81.01
72558;BME280;60583;50.094;8.748;2022-11-24T09:50:30;100105.88;;;10.99;80.05
72558;BME280;60583;50.094;8.748;2022-11-24T09:55:48;100119.25;;;10.59;81.78
72558;BME280;60583;50.094;8.748;2022-11-24T09:58:32;100127.66;;;10.69;81.58
72558;BME280;60583;50.094;8.748;2022-11-24T10:01:02;100128.44;;;10.83;81.58
72558;BME280;60583;50.094;8.748;2022-11-24T10:03:32;100122.72;;;10.73;81.43
72558;BME280;60583;50.094;8.748;2022-11-24T10:06:03;100125.38;;;10.53;81.81
72558;BME280;60583;50.094;8.748;2022-11-24T10:11:08;100129.66;;;10.35;82.97
72558;BME280;60583;50.094;8.748;2022-11-24T10:13:40;100127.41;;;10.45;82.04
72558;BME280;60583;50.094;8.748;2022-11-24T10:16:26;100126.19;;;10.80;81.00
72558;BME280;60583;50.094;8.748;2022-11-24T10:19:13;100132.25;;;11.33;79.27
72558;BME280;60583;50.094;8.748;2022-11-24T10:21:50;100130.38;;;12.85;71.97
72558;BME280;60583;50.094;8.748;2022-11-24T10:25:04;100144.19;;;12.57;72.23
72558;BME280;60583;50.094;8.748;2022-11-24T10:27:42;100146.22;;;11.99;74.46
72558;BME280;60583;50.094;8.748;2022-11-24T10:30:14;100136.47;;;11.67;76.16
72558;BME280;60583;50.094;8.748;2022-11-24T10:32:58;100146.03;;;11.36;76.07
72558;BME280;60583;50.094;8.748;2022-11-24T10:35:38;100151.81;;;11.27;75.04
72558;BME280;60583;50.094;8.748;2022-11-24T10:40:56;100143.16;;;11.31;75.91
72558;BME280;60583;50.094;8.748;2022-11-24T10:43:25;100153.63;;;11.33;76.05
72558;BME280;60583;50.094;8.748;2022-11-24T10:45:51;100157.09;;;11.33;74.70
72558;BME280;60583;50.094;8.748;2022-11-24T10:48:25;100162.06;;;11.23;74.87
72558;BME280;60583;50.094;8.748;2022-11-24T10:50:52;100162.50;;;11.14;74.95
72558;BME280;60583;50.094;8.748;2022-11-24T10:53:25;100156.75;;;11.04;76.15
72558;BME280;60583;50.094;8.748;2022-11-24T10:58:22;100155.91;;;11.16;74.76
72558;BME280;60583;50.094;8.748;2022-11-24T11:00:48;100157.13;;;11.20;75.52
72558;BME280;60583;50.094;8.748;2022-11-24T11:03:20;100163.50;;;11.26;74.07
72558;BME280;60583;50.094;8.748;2022-11-24T11:08:31;100165.75;;;11.29;73.41
72558;BME280;60583;50.094;8.748;2022-11-24T11:13:58;100169.28;;;11.03;74.71
72558;BME280;60583;50.094;8.748;2022-11-24T11:16:50;100160.03;;;11.06;74.99
72558;BME280;60583;50.094;8.748;2022-11-24T11:19:38;100168.25;;;11.04;74.79
72558;BME280;60583;50.094;8.748;2022-11-24T11:24:37;100175.00;;;11.13;74.58
72558;BME280;60583;50.094;8.748;2022-11-24T11:27:15;100182.19;;;11.32;75.17
72558;BME280;60583;50.094;8.748;2022-11-24T11:29:41;100182.75;;;11.54;71.90
72558;BME280;60583;50.094;8.748;2022-11-24T11:32:21;100186.63;;;11.65;72.68
72558;BME280;60583;50.094;8.748;2022-11-24T11:34:48;100189.88;;;11.80;71.37
72558;BME280;60583;50.094;8.748;2022-11-24T11:37:15;100182.09;;;11.59;71.30
72558;BME280;60583;50.094;8.748;2022-11-24T11:39:47;100183.38;;;11.49;72.41
72558;BME280;60583;50.094;8.748;2022-11-24T11:45:09;100188.34;;;11.26;71.59
72558;BME280;60583;50.094;8.748;2022-11-24T11:47:52;100185.06;;;11.18;70.09
72558;BME280;60583;50.094;8.748;2022-11-24T11:50:24;100193.50;;;11.15;70.32
72558;BME280;60583;50.094;8.748;2022-11-24T11:53:34;100187.56;;;11.00;71.14
72558;BME280;60583;50.094;8.748;2022-11-24T11:56:04;100197.38;;;11.06;70.81
72558;BME280;60583;50.094;8.748;2022-11-24T12:01:58;100195.13;;;11.03;69.97
72558;BME280;60583;50.094;8.748;2022-11-24T12:07:46;100202.88;;;12.14;65.07
72558;BME280;60583;50.094;8.748;2022-11-24T12:13:43;100201.47;;;13.30;60.83
72558;BME280;60583;50.094;8.748;2022-11-24T12:16:10;100210.31;;;13.30;62.03
72558;BME280;60583;50.094;8.748;2022-11-24T12:18:58;100217.94;;;12.77;61.39
72558;BME280;60583;50.094;8.748;2022-11-24T12:24:26;100212.38;;;13.71;58.26
72558;BME280;60583;50.094;8.748;2022-11-24T12:26:58;100221.63;;;13.32;58.99
72558;BME280;60583;50.094;8.748;2022-11-24T12:29:41;100222.34;;;12.65;61.35
72558;BME280;60583;50.094;8.748;2022-11-24T12:35:12;100227.06;;;12.32;63.65
72558;BME280;60583;50.094;8.748;2022-11-24T12:38:08;100225.88;;;12.22;63.98
72558;BME280;60583;50.094;8.748;2022-11-24T12:41:06;100237.03;;;12.12;63.49
72558;BME280;60583;50.094;8.748;2022-11-24T12:43:50;100229.66;;;12.01;64.65
72558;BME280;60583;50.094;8.748;2022-11-24T12:46:22;100226.19;;;11.94;62.98
72558;BME280;60583;50.094;8.748;2022-11-24T12:51:41;100238.38;;;11.77;63.19
72558;BME280;60583;50.094;8.748;2022-11-24T12:54:12;100226.69;;;11.65;63.86
72558;BME280;60583;50.094;8.748;2022-11-24T12:56:58;100239.00;;;11.59;63.55
72558;BME280;60583;50.094;8.748;2022-11-24T12:59:28;100227.28;;;11.67;63.33
72558;BME280;60583;50.094;8.748;2022-11-24T13:05:01;100239.22;;;11.77;62.86
72558;BME280;60583;50.094;8.748;2022-11-24T13:07:41;100243.13;;;11.75;63.06
72558;BME280;60583;50.094;8.748;2022-11-24T13:12:57;100240.03;;;11.71;63.23
72558;BME280;60583;50.094;8.748;2022-11-24T13:15:23;100238.78;;;11.61;62.46
72558;BME280;60583;50.094;8.748;2022-11-24T13:17:49;100240.47;;;11.55;63.03
72558;BME280;60583;50.094;8.748;2022-11-24T13:20:22;100249.91;;;11.58;63.31
72558;BME280;60583;50.094;8.748;2022-11-24T13:22:53;100250.31;;;11.54;62.08
72558;BME280;60583;50.094;8.748;2022-11-24T13:25:32;100258.94;;;11.57;61.92
72558;BME280;60583;50.094;8.748;2022-11-24T13:27:59;100241.06;;;11.57;61.66
72558;BME280;60583;50.094;8.748;2022-11-24T13:30:51;100247.84;;;11.53;61.86
72558;BME280;60583;50.094;8.748;2022-11-24T13:33:29;100255.03;;;11.59;61.93
72558;BME280;60583;50.094;8.748;2022-11-24T13:41:10;100268.81;;;11.69;62.54
72558;BME280;60583;50.094;8.748;2022-11-24T13:43:35;100268.59;;;11.71;63.10
72558;BME280;60583;50.094;8.748;2022-11-24T13:46:02;100277.44;;;11.65;62.04
72558;BME280;60583;50.094;8.748;2022-11-24T13:53:33;100264.09;;;11.38;62.50
72558;BME280;60583;50.094;8.748;2022-11-24T13:58:46;100255.69;;;11.28;62.98
72558;BME280;60583;50.094;8.748;2022-11-24T14:01:31;100270.47;;;11.44;64.82
72558;BME280;60583;50.094;8.748;2022-11-24T14:04:04;100274.16;;;11.69;65.45
72558;BME280;60583;50.094;8.748;2022-11-24T14:06:42;100266.34;;;11.54;62.56
72558;BME280;60583;50.094;8.748;2022-11-24T14:09:35;100269.22;;;11.46;62.27
72558;BME280;60583;50.094;8.748;2022-11-24T14:12:22;100266.78;;;11.45;62.66
72558;BME280;60583;50.094;8.748;2022-11-24T14:14:50;100262.66;;;11.42;63.02
72558;BME280;60583;50.094;8.748;2022-11-24T14:17:21;100255.06;;;11.39;63.03
72558;BME280;60583;50.094;8.748;2022-11-24T14:19:51;100258.16;;;11.36;63.43
72558;BME280;60583;50.094;8.748;2022-11-24T14:22:22;100257.13;;;11.37;63.50
72558;BME280;60583;50.094;8.748;2022-11-24T14:24:52;100262.88;;;11.34;62.48